| Date | Time | Temp. (oF) | Dew Point (oF) | Rel. Hum. (%) | Press. (in.) | Wind Dir. | Wind Speed (mph) | Hourly Rainfall (in.) |
|
|---|---|---|---|---|---|---|---|---|---|
| 1 | 12/18 | 00:00 | 19 | 16 | 91 | 30.44 | NNE | 0 | 0.00 |
| 2 | 12/17 | 23:00 | 20 | 17 | 88 | 30.45 | ENE | 0 | 0.00 |
| 3 | 12/17 | 22:00 | 21 | 17 | 86 | 30.44 | SSW | 0 | 0.00 |
| 4 | 12/17 | 21:00 | 23 | 17 | 79 | 30.41 | NNE | 0 | 0.00 |
| 5 | 12/17 | 20:00 | 24 | 17 | 77 | 30.40 | N | 1 | 0.00 |
| 6 | 12/17 | 19:00 | 26 | 17 | 69 | 30.38 | NNW | 1 | 0.00 |
| 7 | 12/17 | 18:00 | 28 | 17 | 64 | 30.37 | NNW | 2 | 0.00 |
| 8 | 12/17 | 17:00 | 31 | 17 | 56 | 30.33 | N | 1 | 0.00 |
| 9 | 12/17 | 16:00 | 33 | 16 | 51 | 30.31 | N | 5 | 0.00 |
| 10 | 12/17 | 15:00 | 34 | 17 | 50 | 30.30 | NW | 4 | 0.00 |
| 11 | 12/17 | 14:00 | 32 | 17 | 54 | 30.28 | NW | 2 | 0.00 |
| 12 | 12/17 | 13:00 | 32 | 19 | 59 | 30.31 | SW | 4 | 0.00 |
| 13 | 12/17 | 12:00 | 29 | 17 | 62 | 30.34 | NW | 3 | 0.00 |
| 14 | 12/17 | 11:00 | 27 | 17 | 66 | 30.34 | NW | 7 | 0.00 |
| 15 | 12/17 | 10:00 | 24 | 15 | 70 | 30.34 | NW | 6 | 0.00 |
| 16 | 12/17 | 09:00 | 22 | 14 | 74 | 30.33 | WNW | 7 | 0.00 |
| 17 | 12/17 | 08:00 | 19 | 13 | 80 | 30.33 | W | 5 | 0.00 |
| 18 | 12/17 | 07:00 | 19 | 12 | 77 | 30.30 | NW | 3 | 0.00 |
| 19 | 12/17 | 06:00 | 19 | 12 | 75 | 30.29 | NW | 4 | 0.00 |
| 20 | 12/17 | 05:00 | 20 | 12 | 73 | 30.26 | NW | 7 | 0.00 |
| 21 | 12/17 | 04:00 | 20 | 12 | 71 | 30.25 | NW | 4 | 0.00 |
| 22 | 12/17 | 03:00 | 21 | 12 | 70 | 30.23 | NNW | 8 | 0.00 |